sensor_id;sensor_type;location;lat;lon;timestamp;P1;durP1;ratioP1;P2;durP2;ratioP2
44438;SDS011;30145;48.874;10.186;2023-05-29T00:00:50;6.00;;;3.20;;
44438;SDS011;30145;48.874;10.186;2023-05-29T00:03:18;4.10;;;3.10;;
44438;SDS011;30145;48.874;10.186;2023-05-29T00:05:45;8.53;;;3.30;;
44438;SDS011;30145;48.874;10.186;2023-05-29T00:08:13;7.57;;;3.80;;
44438;SDS011;30145;48.874;10.186;2023-05-29T00:10:40;5.07;;;3.73;;
44438;SDS011;30145;48.874;10.186;2023-05-29T00:13:07;4.43;;;3.00;;
44438;SDS011;30145;48.874;10.186;2023-05-29T00:15:34;3.87;;;3.10;;
44438;SDS011;30145;48.874;10.186;2023-05-29T00:18:01;4.53;;;3.37;;
44438;SDS011;30145;48.874;10.186;2023-05-29T00:20:28;5.47;;;3.33;;
44438;SDS011;30145;48.874;10.186;2023-05-29T00:22:55;7.93;;;3.43;;
44438;SDS011;30145;48.874;10.186;2023-05-29T00:25:22;5.47;;;3.60;;
44438;SDS011;30145;48.874;10.186;2023-05-29T00:27:49;6.50;;;3.30;;
44438;SDS011;30145;48.874;10.186;2023-05-29T00:30:16;4.23;;;3.33;;
44438;SDS011;30145;48.874;10.186;2023-05-29T00:32:43;4.17;;;3.10;;
44438;SDS011;30145;48.874;10.186;2023-05-29T00:35:10;5.40;;;3.13;;
44438;SDS011;30145;48.874;10.186;2023-05-29T00:37:37;4.53;;;3.40;;
44438;SDS011;30145;48.874;10.186;2023-05-29T00:40:05;5.70;;;3.70;;
44438;SDS011;30145;48.874;10.186;2023-05-29T00:42:32;9.63;;;4.00;;
44438;SDS011;30145;48.874;10.186;2023-05-29T00:44:59;5.23;;;3.23;;
44438;SDS011;30145;48.874;10.186;2023-05-29T00:47:29;3.87;;;3.10;;
44438;SDS011;30145;48.874;10.186;2023-05-29T00:50:00;7.47;;;3.57;;
44438;SDS011;30145;48.874;10.186;2023-05-29T00:52:28;5.23;;;3.33;;
44438;SDS011;30145;48.874;10.186;2023-05-29T00:54:55;5.13;;;3.47;;
44438;SDS011;30145;48.874;10.186;2023-05-29T00:57:23;4.87;;;3.30;;
44438;SDS011;30145;48.874;10.186;2023-05-29T00:59:50;6.07;;;3.63;;
44438;SDS011;30145;48.874;10.186;2023-05-29T01:02:17;5.37;;;2.93;;
44438;SDS011;30145;48.874;10.186;2023-05-29T01:04:45;5.93;;;3.43;;
44438;SDS011;30145;48.874;10.186;2023-05-29T01:07:12;5.73;;;3.60;;
44438;SDS011;30145;48.874;10.186;2023-05-29T01:09:41;5.60;;;3.47;;
44438;SDS011;30145;48.874;10.186;2023-05-29T01:20:47;3.67;;;3.17;;
44438;SDS011;30145;48.874;10.186;2023-05-29T01:28:51;5.13;;;3.53;;
44438;SDS011;30145;48.874;10.186;2023-05-29T01:31:21;5.93;;;3.50;;
44438;SDS011;30145;48.874;10.186;2023-05-29T01:33:54;4.80;;;3.00;;
44438;SDS011;30145;48.874;10.186;2023-05-29T01:36:22;5.70;;;3.93;;
44438;SDS011;30145;48.874;10.186;2023-05-29T01:38:50;5.27;;;3.30;;
44438;SDS011;30145;48.874;10.186;2023-05-29T01:41:18;4.63;;;3.50;;
44438;SDS011;30145;48.874;10.186;2023-05-29T01:43:46;5.83;;;3.70;;
44438;SDS011;30145;48.874;10.186;2023-05-29T01:46:14;5.77;;;3.57;;
44438;SDS011;30145;48.874;10.186;2023-05-29T01:48:41;5.70;;;3.77;;
44438;SDS011;30145;48.874;10.186;2023-05-29T01:51:09;4.67;;;3.60;;
44438;SDS011;30145;48.874;10.186;2023-05-29T01:53:40;6.20;;;3.47;;
44438;SDS011;30145;48.874;10.186;2023-05-29T01:56:08;5.07;;;3.23;;
44438;SDS011;30145;48.874;10.186;2023-05-29T01:58:35;5.67;;;3.70;;
44438;SDS011;30145;48.874;10.186;2023-05-29T02:01:04;5.73;;;3.57;;
44438;SDS011;30145;48.874;10.186;2023-05-29T02:03:33;5.47;;;3.40;;
44438;SDS011;30145;48.874;10.186;2023-05-29T02:06:00;5.90;;;3.40;;
44438;SDS011;30145;48.874;10.186;2023-05-29T02:08:28;6.13;;;4.10;;
44438;SDS011;30145;48.874;10.186;2023-05-29T02:10:55;4.37;;;3.00;;
44438;SDS011;30145;48.874;10.186;2023-05-29T02:13:22;5.13;;;3.70;;
44438;SDS011;30145;48.874;10.186;2023-05-29T02:15:49;5.17;;;3.23;;
44438;SDS011;30145;48.874;10.186;2023-05-29T02:18:16;9.13;;;3.23;;
44438;SDS011;30145;48.874;10.186;2023-05-29T02:20:46;5.63;;;3.80;;
44438;SDS011;30145;48.874;10.186;2023-05-29T02:23:13;7.37;;;3.90;;
44438;SDS011;30145;48.874;10.186;2023-05-29T02:25:42;7.27;;;3.77;;
44438;SDS011;30145;48.874;10.186;2023-05-29T02:28:09;5.77;;;3.60;;
44438;SDS011;30145;48.874;10.186;2023-05-29T02:30:36;5.70;;;3.70;;
44438;SDS011;30145;48.874;10.186;2023-05-29T02:33:04;6.90;;;3.63;;
44438;SDS011;30145;48.874;10.186;2023-05-29T02:35:32;6.43;;;3.53;;
44438;SDS011;30145;48.874;10.186;2023-05-29T02:38:00;5.37;;;3.60;;
44438;SDS011;30145;48.874;10.186;2023-05-29T02:40:27;5.80;;;3.57;;
44438;SDS011;30145;48.874;10.186;2023-05-29T02:42:54;5.30;;;3.63;;
44438;SDS011;30145;48.874;10.186;2023-05-29T02:45:21;5.43;;;3.30;;
44438;SDS011;30145;48.874;10.186;2023-05-29T02:47:48;6.13;;;3.53;;
44438;SDS011;30145;48.874;10.186;2023-05-29T02:50:15;6.93;;;3.57;;
44438;SDS011;30145;48.874;10.186;2023-05-29T02:52:42;4.73;;;3.67;;
44438;SDS011;30145;48.874;10.186;2023-05-29T02:55:09;6.83;;;3.80;;
44438;SDS011;30145;48.874;10.186;2023-05-29T02:57:36;7.73;;;4.10;;
44438;SDS011;30145;48.874;10.186;2023-05-29T03:00:03;6.40;;;4.00;;
44438;SDS011;30145;48.874;10.186;2023-05-29T03:02:34;4.90;;;3.53;;
44438;SDS011;30145;48.874;10.186;2023-05-29T03:05:02;4.63;;;3.50;;
44438;SDS011;30145;48.874;10.186;2023-05-29T03:07:29;5.80;;;3.73;;
44438;SDS011;30145;48.874;10.186;2023-05-29T03:09:56;5.57;;;3.30;;
44438;SDS011;30145;48.874;10.186;2023-05-29T03:12:24;4.97;;;3.67;;
44438;SDS011;30145;48.874;10.186;2023-05-29T03:14:51;7.83;;;3.97;;
44438;SDS011;30145;48.874;10.186;2023-05-29T03:17:19;4.90;;;3.47;;
44438;SDS011;30145;48.874;10.186;2023-05-29T03:19:47;4.63;;;3.67;;
44438;SDS011;30145;48.874;10.186;2023-05-29T03:22:14;5.50;;;3.33;;
44438;SDS011;30145;48.874;10.186;2023-05-29T03:24:41;6.17;;;3.80;;
44438;SDS011;30145;48.874;10.186;2023-05-29T03:27:08;7.90;;;4.07;;
44438;SDS011;30145;48.874;10.186;2023-05-29T03:29:35;6.33;;;3.60;;
44438;SDS011;30145;48.874;10.186;2023-05-29T03:32:02;4.63;;;3.67;;
44438;SDS011;30145;48.874;10.186;2023-05-29T03:34:29;6.37;;;3.33;;
44438;SDS011;30145;48.874;10.186;2023-05-29T03:36:56;4.77;;;3.63;;
44438;SDS011;30145;48.874;10.186;2023-05-29T03:39:24;9.50;;;3.73;;
44438;SDS011;30145;48.874;10.186;2023-05-29T03:41:51;8.17;;;3.37;;
44438;SDS011;30145;48.874;10.186;2023-05-29T03:44:18;7.27;;;3.87;;
44438;SDS011;30145;48.874;10.186;2023-05-29T03:46:45;4.33;;;3.27;;
44438;SDS011;30145;48.874;10.186;2023-05-29T03:49:12;5.87;;;4.13;;
44438;SDS011;30145;48.874;10.186;2023-05-29T03:51:39;7.30;;;3.67;;
44438;SDS011;30145;48.874;10.186;2023-05-29T03:54:06;3.67;;;3.23;;
44438;SDS011;30145;48.874;10.186;2023-05-29T03:56:33;6.23;;;3.47;;
44438;SDS011;30145;48.874;10.186;2023-05-29T03:59:02;6.83;;;3.73;;
44438;SDS011;30145;48.874;10.186;2023-05-29T04:01:29;8.27;;;4.37;;
44438;SDS011;30145;48.874;10.186;2023-05-29T04:03:56;5.23;;;3.57;;
44438;SDS011;30145;48.874;10.186;2023-05-29T04:06:23;5.03;;;3.50;;
44438;SDS011;30145;48.874;10.186;2023-05-29T04:08:50;5.33;;;3.27;;
44438;SDS011;30145;48.874;10.186;2023-05-29T04:11:18;5.77;;;3.33;;
44438;SDS011;30145;48.874;10.186;2023-05-29T04:13:47;5.70;;;3.90;;
44438;SDS011;30145;48.874;10.186;2023-05-29T04:16:15;5.30;;;3.60;;
44438;SDS011;30145;48.874;10.186;2023-05-29T04:18:42;5.80;;;3.67;;
44438;SDS011;30145;48.874;10.186;2023-05-29T04:21:09;6.40;;;3.50;;
44438;SDS011;30145;48.874;10.186;2023-05-29T04:23:36;4.20;;;3.27;;
44438;SDS011;30145;48.874;10.186;2023-05-29T04:26:03;4.33;;;3.13;;
44438;SDS011;30145;48.874;10.186;2023-05-29T04:28:32;5.13;;;3.60;;
44438;SDS011;30145;48.874;10.186;2023-05-29T04:30:59;4.50;;;3.20;;
44438;SDS011;30145;48.874;10.186;2023-05-29T04:33:27;5.53;;;3.53;;
44438;SDS011;30145;48.874;10.186;2023-05-29T04:35:55;6.40;;;3.53;;
44438;SDS011;30145;48.874;10.186;2023-05-29T04:38:22;5.03;;;3.43;;
44438;SDS011;30145;48.874;10.186;2023-05-29T04:40:52;5.10;;;3.30;;
44438;SDS011;30145;48.874;10.186;2023-05-29T04:43:24;7.70;;;3.60;;
44438;SDS011;30145;48.874;10.186;2023-05-29T04:45:52;5.67;;;3.73;;
44438;SDS011;30145;48.874;10.186;2023-05-29T04:48:20;4.07;;;3.67;;
44438;SDS011;30145;48.874;10.186;2023-05-29T04:50:47;5.27;;;3.93;;
44438;SDS011;30145;48.874;10.186;2023-05-29T04:53:15;6.93;;;3.60;;
44438;SDS011;30145;48.874;10.186;2023-05-29T04:55:42;5.20;;;3.17;;
44438;SDS011;30145;48.874;10.186;2023-05-29T04:58:09;5.73;;;3.43;;
44438;SDS011;30145;48.874;10.186;2023-05-29T05:00:38;4.53;;;3.30;;
44438;SDS011;30145;48.874;10.186;2023-05-29T05:03:05;8.43;;;3.70;;
44438;SDS011;30145;48.874;10.186;2023-05-29T05:05:32;5.57;;;3.40;;
44438;SDS011;30145;48.874;10.186;2023-05-29T05:07:59;7.70;;;3.60;;
44438;SDS011;30145;48.874;10.186;2023-05-29T05:10:26;6.93;;;3.57;;
44438;SDS011;30145;48.874;10.186;2023-05-29T05:12:53;5.87;;;3.80;;
44438;SDS011;30145;48.874;10.186;2023-05-29T05:15:20;5.17;;;3.43;;
44438;SDS011;30145;48.874;10.186;2023-05-29T05:17:47;6.33;;;4.20;;
44438;SDS011;30145;48.874;10.186;2023-05-29T05:20:15;6.07;;;3.70;;
44438;SDS011;30145;48.874;10.186;2023-05-29T05:22:43;6.00;;;3.60;;
44438;SDS011;30145;48.874;10.186;2023-05-29T05:25:10;5.37;;;3.90;;
44438;SDS011;30145;48.874;10.186;2023-05-29T05:27:37;6.37;;;4.10;;
44438;SDS011;30145;48.874;10.186;2023-05-29T05:30:05;6.47;;;4.13;;
44438;SDS011;30145;48.874;10.186;2023-05-29T05:32:33;5.43;;;3.50;;
44438;SDS011;30145;48.874;10.186;2023-05-29T05:35:01;9.17;;;3.93;;
44438;SDS011;30145;48.874;10.186;2023-05-29T05:37:28;5.43;;;3.50;;
44438;SDS011;30145;48.874;10.186;2023-05-29T05:39:55;6.73;;;3.80;;
44438;SDS011;30145;48.874;10.186;2023-05-29T05:42:24;5.67;;;3.73;;
44438;SDS011;30145;48.874;10.186;2023-05-29T05:44:51;6.03;;;4.13;;
44438;SDS011;30145;48.874;10.186;2023-05-29T05:47:18;6.33;;;4.10;;
44438;SDS011;30145;48.874;10.186;2023-05-29T05:49:45;6.13;;;3.57;;
44438;SDS011;30145;48.874;10.186;2023-05-29T05:52:12;4.53;;;3.27;;
44438;SDS011;30145;48.874;10.186;2023-05-29T05:54:39;6.57;;;3.97;;
44438;SDS011;30145;48.874;10.186;2023-05-29T05:57:05;5.93;;;3.60;;
44438;SDS011;30145;48.874;10.186;2023-05-29T05:59:34;4.43;;;3.67;;
44438;SDS011;30145;48.874;10.186;2023-05-29T06:02:01;6.90;;;4.20;;
44438;SDS011;30145;48.874;10.186;2023-05-29T06:04:30;5.97;;;3.70;;
44438;SDS011;30145;48.874;10.186;2023-05-29T06:06:57;6.55;;;4.20;;
44438;SDS011;30145;48.874;10.186;2023-05-29T06:09:24;7.67;;;4.37;;
44438;SDS011;30145;48.874;10.186;2023-05-29T06:11:52;4.50;;;3.63;;
44438;SDS011;30145;48.874;10.186;2023-05-29T06:14:20;6.90;;;4.10;;
44438;SDS011;30145;48.874;10.186;2023-05-29T06:16:47;5.33;;;3.87;;
44438;SDS011;30145;48.874;10.186;2023-05-29T06:19:14;8.57;;;4.20;;
44438;SDS011;30145;48.874;10.186;2023-05-29T06:21:41;8.57;;;4.53;;
44438;SDS011;30145;48.874;10.186;2023-05-29T06:24:08;8.80;;;3.87;;
44438;SDS011;30145;48.874;10.186;2023-05-29T06:26:36;6.50;;;3.73;;
44438;SDS011;30145;48.874;10.186;2023-05-29T06:29:04;7.97;;;4.30;;
44438;SDS011;30145;48.874;10.186;2023-05-29T06:31:32;7.97;;;4.33;;
44438;SDS011;30145;48.874;10.186;2023-05-29T06:34:00;6.67;;;4.23;;
44438;SDS011;30145;48.874;10.186;2023-05-29T06:36:27;5.10;;;3.13;;
44438;SDS011;30145;48.874;10.186;2023-05-29T06:38:54;6.00;;;3.90;;
44438;SDS011;30145;48.874;10.186;2023-05-29T06:41:21;9.30;;;7.53;;
44438;SDS011;30145;48.874;10.186;2023-05-29T06:43:48;5.70;;;3.90;;
44438;SDS011;30145;48.874;10.186;2023-05-29T06:46:15;7.03;;;3.67;;
44438;SDS011;30145;48.874;10.186;2023-05-29T06:48:42;6.70;;;3.77;;
44438;SDS011;30145;48.874;10.186;2023-05-29T06:51:10;4.03;;;3.03;;
44438;SDS011;30145;48.874;10.186;2023-05-29T06:53:38;6.23;;;3.97;;
44438;SDS011;30145;48.874;10.186;2023-05-29T06:56:06;7.67;;;3.50;;
44438;SDS011;30145;48.874;10.186;2023-05-29T06:58:33;4.60;;;3.10;;
44438;SDS011;30145;48.874;10.186;2023-05-29T07:01:00;6.87;;;3.00;;
44438;SDS011;30145;48.874;10.186;2023-05-29T07:03:47;5.97;;;3.10;;
44438;SDS011;30145;48.874;10.186;2023-05-29T07:06:18;6.60;;;3.37;;
44438;SDS011;30145;48.874;10.186;2023-05-29T07:08:46;5.70;;;3.47;;
44438;SDS011;30145;48.874;10.186;2023-05-29T07:11:13;4.87;;;3.10;;
44438;SDS011;30145;48.874;10.186;2023-05-29T07:13:41;6.63;;;3.23;;
44438;SDS011;30145;48.874;10.186;2023-05-29T07:16:08;5.47;;;2.93;;
44438;SDS011;30145;48.874;10.186;2023-05-29T07:18:39;5.83;;;3.23;;
44438;SDS011;30145;48.874;10.186;2023-05-29T07:21:05;4.67;;;3.10;;
44438;SDS011;30145;48.874;10.186;2023-05-29T07:23:32;4.60;;;3.47;;
44438;SDS011;30145;48.874;10.186;2023-05-29T07:25:59;5.10;;;3.13;;
44438;SDS011;30145;48.874;10.186;2023-05-29T07:28:26;4.90;;;3.20;;
44438;SDS011;30145;48.874;10.186;2023-05-29T07:30:53;5.73;;;3.50;;
44438;SDS011;30145;48.874;10.186;2023-05-29T07:33:20;6.00;;;3.60;;
44438;SDS011;30145;48.874;10.186;2023-05-29T07:35:47;5.80;;;3.40;;
44438;SDS011;30145;48.874;10.186;2023-05-29T07:38:14;4.50;;;3.30;;
44438;SDS011;30145;48.874;10.186;2023-05-29T07:40:42;5.60;;;3.80;;
44438;SDS011;30145;48.874;10.186;2023-05-29T07:43:09;5.67;;;3.60;;
44438;SDS011;30145;48.874;10.186;2023-05-29T07:45:36;5.30;;;3.83;;
44438;SDS011;30145;48.874;10.186;2023-05-29T07:48:03;4.67;;;3.43;;
44438;SDS011;30145;48.874;10.186;2023-05-29T07:50:30;5.70;;;3.43;;
44438;SDS011;30145;48.874;10.186;2023-05-29T07:52:57;6.30;;;3.60;;
44438;SDS011;30145;48.874;10.186;2023-05-29T07:55:24;6.13;;;3.47;;
44438;SDS011;30145;48.874;10.186;2023-05-29T07:57:51;6.77;;;3.60;;
44438;SDS011;30145;48.874;10.186;2023-05-29T08:00:18;6.00;;;3.80;;
44438;SDS011;30145;48.874;10.186;2023-05-29T08:02:45;6.63;;;3.33;;
44438;SDS011;30145;48.874;10.186;2023-05-29T08:05:13;7.00;;;4.50;;
44438;SDS011;30145;48.874;10.186;2023-05-29T08:07:40;6.70;;;4.67;;
44438;SDS011;30145;48.874;10.186;2023-05-29T08:10:07;7.43;;;4.63;;
44438;SDS011;30145;48.874;10.186;2023-05-29T08:12:35;9.33;;;5.87;;
44438;SDS011;30145;48.874;10.186;2023-05-29T08:15:02;6.03;;;3.93;;
44438;SDS011;30145;48.874;10.186;2023-05-29T08:17:30;4.43;;;3.57;;
44438;SDS011;30145;48.874;10.186;2023-05-29T08:19:57;5.00;;;3.83;;
44438;SDS011;30145;48.874;10.186;2023-05-29T08:22:28;6.13;;;3.20;;
44438;SDS011;30145;48.874;10.186;2023-05-29T08:24:56;5.47;;;3.63;;
44438;SDS011;30145;48.874;10.186;2023-05-29T08:27:23;5.97;;;3.37;;
44438;SDS011;30145;48.874;10.186;2023-05-29T08:29:50;8.73;;;4.37;;
44438;SDS011;30145;48.874;10.186;2023-05-29T08:32:17;4.70;;;3.43;;
44438;SDS011;30145;48.874;10.186;2023-05-29T08:34:44;5.63;;;3.60;;
44438;SDS011;30145;48.874;10.186;2023-05-29T08:37:12;4.50;;;3.03;;
44438;SDS011;30145;48.874;10.186;2023-05-29T08:39:40;7.17;;;3.47;;
44438;SDS011;30145;48.874;10.186;2023-05-29T08:42:09;6.20;;;3.70;;
44438;SDS011;30145;48.874;10.186;2023-05-29T08:44:39;9.50;;;3.83;;
44438;SDS011;30145;48.874;10.186;2023-05-29T08:47:07;4.77;;;2.73;;
44438;SDS011;30145;48.874;10.186;2023-05-29T08:49:51;6.00;;;2.87;;
44438;SDS011;30145;48.874;10.186;2023-05-29T08:52:22;7.13;;;2.87;;
44438;SDS011;30145;48.874;10.186;2023-05-29T08:54:55;3.80;;;2.90;;
44438;SDS011;30145;48.874;10.186;2023-05-29T08:57:24;5.33;;;3.10;;
44438;SDS011;30145;48.874;10.186;2023-05-29T08:59:52;4.70;;;2.77;;
44438;SDS011;30145;48.874;10.186;2023-05-29T09:02:20;5.30;;;2.77;;
44438;SDS011;30145;48.874;10.186;2023-05-29T09:04:51;6.63;;;3.27;;
44438;SDS011;30145;48.874;10.186;2023-05-29T09:07:22;4.77;;;2.77;;
44438;SDS011;30145;48.874;10.186;2023-05-29T09:09:51;5.20;;;3.40;;
44438;SDS011;30145;48.874;10.186;2023-05-29T09:12:18;5.33;;;2.60;;
44438;SDS011;30145;48.874;10.186;2023-05-29T09:14:45;4.67;;;2.80;;
44438;SDS011;30145;48.874;10.186;2023-05-29T09:17:13;4.50;;;3.67;;
44438;SDS011;30145;48.874;10.186;2023-05-29T09:19:42;7.43;;;3.57;;
44438;SDS011;30145;48.874;10.186;2023-05-29T09:22:10;7.77;;;3.93;;
44438;SDS011;30145;48.874;10.186;2023-05-29T09:24:42;6.00;;;3.67;;
44438;SDS011;30145;48.874;10.186;2023-05-29T09:27:12;4.10;;;3.17;;
44438;SDS011;30145;48.874;10.186;2023-05-29T09:29:45;5.50;;;3.00;;
44438;SDS011;30145;48.874;10.186;2023-05-29T09:32:31;5.47;;;2.97;;
44438;SDS011;30145;48.874;10.186;2023-05-29T09:35:00;6.40;;;3.10;;
44438;SDS011;30145;48.874;10.186;2023-05-29T09:37:27;8.13;;;3.50;;
44438;SDS011;30145;48.874;10.186;2023-05-29T09:39:54;5.03;;;2.83;;
44438;SDS011;30145;48.874;10.186;2023-05-29T09:42:22;5.07;;;2.90;;
44438;SDS011;30145;48.874;10.186;2023-05-29T09:44:50;4.67;;;2.97;;
44438;SDS011;30145;48.874;10.186;2023-05-29T09:47:20;4.17;;;3.00;;
44438;SDS011;30145;48.874;10.186;2023-05-29T09:49:47;6.80;;;3.17;;
44438;SDS011;30145;48.874;10.186;2023-05-29T09:52:15;3.63;;;2.77;;
44438;SDS011;30145;48.874;10.186;2023-05-29T09:54:47;4.27;;;3.00;;
44438;SDS011;30145;48.874;10.186;2023-05-29T09:57:15;5.17;;;3.40;;
44438;SDS011;30145;48.874;10.186;2023-05-29T09:59:43;6.13;;;2.77;;
44438;SDS011;30145;48.874;10.186;2023-05-29T10:02:18;5.97;;;2.80;;
44438;SDS011;30145;48.874;10.186;2023-05-29T10:04:47;5.70;;;2.77;;
44438;SDS011;30145;48.874;10.186;2023-05-29T10:09:44;7.40;;;2.80;;
44438;SDS011;30145;48.874;10.186;2023-05-29T10:12:12;5.33;;;3.10;;
44438;SDS011;30145;48.874;10.186;2023-05-29T10:14:39;4.43;;;2.73;;
44438;SDS011;30145;48.874;10.186;2023-05-29T10:17:07;5.57;;;2.87;;
44438;SDS011;30145;48.874;10.186;2023-05-29T10:19:36;4.33;;;3.07;;
44438;SDS011;30145;48.874;10.186;2023-05-29T10:22:05;6.07;;;3.00;;
44438;SDS011;30145;48.874;10.186;2023-05-29T10:24:32;5.30;;;2.90;;
44438;SDS011;30145;48.874;10.186;2023-05-29T10:27:00;5.27;;;3.30;;
44438;SDS011;30145;48.874;10.186;2023-05-29T10:40:22;4.33;;;2.93;;
44438;SDS011;30145;48.874;10.186;2023-05-29T10:42:53;4.40;;;2.63;;
44438;SDS011;30145;48.874;10.186;2023-05-29T10:53:08;3.93;;;2.77;;
44438;SDS011;30145;48.874;10.186;2023-05-29T10:55:49;4.00;;;3.00;;
44438;SDS011;30145;48.874;10.186;2023-05-29T10:58:21;3.90;;;2.77;;
44438;SDS011;30145;48.874;10.186;2023-05-29T11:00:49;3.07;;;2.40;;
44438;SDS011;30145;48.874;10.186;2023-05-29T11:03:21;5.67;;;2.83;;
44438;SDS011;30145;48.874;10.186;2023-05-29T11:05:56;5.33;;;2.90;;
44438;SDS011;30145;48.874;10.186;2023-05-29T11:08:41;3.70;;;2.90;;
44438;SDS011;30145;48.874;10.186;2023-05-29T11:11:13;3.53;;;2.63;;
44438;SDS011;30145;48.874;10.186;2023-05-29T11:14:02;4.67;;;2.30;;
44438;SDS011;30145;48.874;10.186;2023-05-29T11:18:59;3.73;;;2.63;;
44438;SDS011;30145;48.874;10.186;2023-05-29T11:21:53;4.23;;;3.10;;
44438;SDS011;30145;48.874;10.186;2023-05-29T11:24:33;5.23;;;3.10;;
44438;SDS011;30145;48.874;10.186;2023-05-29T11:27:03;4.73;;;3.30;;
44438;SDS011;30145;48.874;10.186;2023-05-29T11:29:34;3.63;;;2.77;;
44438;SDS011;30145;48.874;10.186;2023-05-29T11:32:02;4.80;;;3.10;;
44438;SDS011;30145;48.874;10.186;2023-05-29T11:34:31;5.20;;;3.13;;
44438;SDS011;30145;48.874;10.186;2023-05-29T11:37:00;3.40;;;2.73;;
44438;SDS011;30145;48.874;10.186;2023-05-29T11:39:27;5.97;;;2.90;;
44438;SDS011;30145;48.874;10.186;2023-05-29T11:41:55;3.67;;;2.73;;
44438;SDS011;30145;48.874;10.186;2023-05-29T11:44:25;3.23;;;2.70;;
44438;SDS011;30145;48.874;10.186;2023-05-29T11:47:02;4.30;;;3.07;;
44438;SDS011;30145;48.874;10.186;2023-05-29T11:49:31;4.17;;;2.83;;
44438;SDS011;30145;48.874;10.186;2023-05-29T11:52:12;5.10;;;3.33;;
44438;SDS011;30145;48.874;10.186;2023-05-29T11:54:44;3.37;;;2.70;;
44438;SDS011;30145;48.874;10.186;2023-05-29T11:57:18;4.33;;;2.83;;
44438;SDS011;30145;48.874;10.186;2023-05-29T11:59:46;4.10;;;2.80;;
44438;SDS011;30145;48.874;10.186;2023-05-29T12:02:14;4.43;;;2.90;;
44438;SDS011;30145;48.874;10.186;2023-05-29T12:04:41;4.40;;;2.60;;
44438;SDS011;30145;48.874;10.186;2023-05-29T12:07:17;5.43;;;2.70;;
44438;SDS011;30145;48.874;10.186;2023-05-29T12:09:45;3.87;;;2.70;;
44438;SDS011;30145;48.874;10.186;2023-05-29T12:12:14;3.80;;;2.60;;
44438;SDS011;30145;48.874;10.186;2023-05-29T12:14:41;4.40;;;2.57;;
44438;SDS011;30145;48.874;10.186;2023-05-29T12:17:08;4.13;;;2.90;;
44438;SDS011;30145;48.874;10.186;2023-05-29T12:19:35;3.37;;;2.70;;
44438;SDS011;30145;48.874;10.186;2023-05-29T12:22:02;4.23;;;2.80;;
44438;SDS011;30145;48.874;10.186;2023-05-29T12:24:29;6.47;;;3.10;;
44438;SDS011;30145;48.874;10.186;2023-05-29T12:27:03;5.10;;;2.60;;
44438;SDS011;30145;48.874;10.186;2023-05-29T12:29:32;4.10;;;3.00;;
44438;SDS011;30145;48.874;10.186;2023-05-29T12:31:59;3.63;;;2.70;;
44438;SDS011;30145;48.874;10.186;2023-05-29T12:34:27;3.43;;;2.77;;
44438;SDS011;30145;48.874;10.186;2023-05-29T12:37:07;4.50;;;2.88;;
44438;SDS011;30145;48.874;10.186;2023-05-29T12:39:37;3.80;;;2.80;;
44438;SDS011;30145;48.874;10.186;2023-05-29T12:42:04;3.10;;;2.42;;
44438;SDS011;30145;48.874;10.186;2023-05-29T12:44:33;4.40;;;2.90;;
44438;SDS011;30145;48.874;10.186;2023-05-29T12:47:00;4.68;;;2.75;;
44438;SDS011;30145;48.874;10.186;2023-05-29T12:49:27;3.77;;;2.80;;
44438;SDS011;30145;48.874;10.186;2023-05-29T12:51:55;3.47;;;2.50;;
44438;SDS011;30145;48.874;10.186;2023-05-29T12:54:31;3.87;;;2.17;;
44438;SDS011;30145;48.874;10.186;2023-05-29T12:56:58;7.13;;;2.58;;
44438;SDS011;30145;48.874;10.186;2023-05-29T12:59:27;2.93;;;2.57;;
44438;SDS011;30145;48.874;10.186;2023-05-29T13:01:54;3.10;;;2.40;;
44438;SDS011;30145;48.874;10.186;2023-05-29T13:04:21;7.63;;;3.00;;
44438;SDS011;30145;48.874;10.186;2023-05-29T13:06:48;4.63;;;2.63;;
44438;SDS011;30145;48.874;10.186;2023-05-29T13:09:15;3.05;;;2.53;;
44438;SDS011;30145;48.874;10.186;2023-05-29T13:11:42;3.28;;;2.60;;
44438;SDS011;30145;48.874;10.186;2023-05-29T13:14:09;3.07;;;2.10;;
44438;SDS011;30145;48.874;10.186;2023-05-29T13:16:36;7.60;;;2.78;;
44438;SDS011;30145;48.874;10.186;2023-05-29T13:19:03;3.70;;;3.28;;
44438;SDS011;30145;48.874;10.186;2023-05-29T13:21:32;4.20;;;3.00;;
44438;SDS011;30145;48.874;10.186;2023-05-29T13:23:59;3.47;;;2.78;;
44438;SDS011;30145;48.874;10.186;2023-05-29T13:26:27;4.05;;;2.72;;
44438;SDS011;30145;48.874;10.186;2023-05-29T13:28:54;3.65;;;2.78;;
44438;SDS011;30145;48.874;10.186;2023-05-29T13:31:21;4.50;;;2.40;;
44438;SDS011;30145;48.874;10.186;2023-05-29T13:33:48;4.00;;;2.80;;
44438;SDS011;30145;48.874;10.186;2023-05-29T13:36:15;3.85;;;2.75;;
44438;SDS011;30145;48.874;10.186;2023-05-29T13:38:42;6.50;;;2.85;;
44438;SDS011;30145;48.874;10.186;2023-05-29T13:41:10;4.63;;;3.15;;
44438;SDS011;30145;48.874;10.186;2023-05-29T13:43:37;5.80;;;3.00;;
44438;SDS011;30145;48.874;10.186;2023-05-29T13:46:08;3.75;;;2.85;;
44438;SDS011;30145;48.874;10.186;2023-05-29T13:48:36;4.95;;;2.90;;
44438;SDS011;30145;48.874;10.186;2023-05-29T13:51:03;3.22;;;2.38;;
44438;SDS011;30145;48.874;10.186;2023-05-29T13:53:30;4.07;;;2.80;;
44438;SDS011;30145;48.874;10.186;2023-05-29T13:55:57;3.88;;;2.88;;
44438;SDS011;30145;48.874;10.186;2023-05-29T13:58:24;3.65;;;3.08;;
44438;SDS011;30145;48.874;10.186;2023-05-29T14:00:51;4.15;;;2.90;;
44438;SDS011;30145;48.874;10.186;2023-05-29T14:03:18;5.32;;;2.92;;
44438;SDS011;30145;48.874;10.186;2023-05-29T14:05:48;5.90;;;3.20;;
44438;SDS011;30145;48.874;10.186;2023-05-29T14:08:15;4.63;;;3.10;;
44438;SDS011;30145;48.874;10.186;2023-05-29T14:10:42;3.92;;;2.72;;
44438;SDS011;30145;48.874;10.186;2023-05-29T14:13:09;4.90;;;3.35;;
44438;SDS011;30145;48.874;10.186;2023-05-29T14:15:36;5.38;;;3.17;;
44438;SDS011;30145;48.874;10.186;2023-05-29T14:18:04;3.50;;;2.80;;
44438;SDS011;30145;48.874;10.186;2023-05-29T14:20:32;4.88;;;2.72;;
44438;SDS011;30145;48.874;10.186;2023-05-29T14:22:59;3.75;;;2.95;;
44438;SDS011;30145;48.874;10.186;2023-05-29T14:25:25;5.15;;;3.15;;
44438;SDS011;30145;48.874;10.186;2023-05-29T14:27:52;5.78;;;3.08;;
44438;SDS011;30145;48.874;10.186;2023-05-29T14:30:19;3.60;;;2.90;;
44438;SDS011;30145;48.874;10.186;2023-05-29T14:32:46;5.22;;;2.80;;
44438;SDS011;30145;48.874;10.186;2023-05-29T14:35:14;5.97;;;3.05;;
44438;SDS011;30145;48.874;10.186;2023-05-29T14:37:41;4.15;;;3.28;;
44438;SDS011;30145;48.874;10.186;2023-05-29T14:40:08;4.72;;;2.95;;
44438;SDS011;30145;48.874;10.186;2023-05-29T14:42:36;3.78;;;3.00;;
44438;SDS011;30145;48.874;10.186;2023-05-29T14:45:03;6.10;;;3.35;;
44438;SDS011;30145;48.874;10.186;2023-05-29T14:47:31;3.35;;;2.80;;
44438;SDS011;30145;48.874;10.186;2023-05-29T14:49:58;4.10;;;2.80;;
44438;SDS011;30145;48.874;10.186;2023-05-29T14:52:25;4.50;;;2.70;;
44438;SDS011;30145;48.874;10.186;2023-05-29T14:54:52;4.07;;;2.95;;
44438;SDS011;30145;48.874;10.186;2023-05-29T14:57:19;4.95;;;2.90;;
44438;SDS011;30145;48.874;10.186;2023-05-29T14:59:46;4.53;;;2.78;;
44438;SDS011;30145;48.874;10.186;2023-05-29T15:02:13;5.65;;;3.03;;
44438;SDS011;30145;48.874;10.186;2023-05-29T15:04:40;5.53;;;3.10;;
44438;SDS011;30145;48.874;10.186;2023-05-29T15:07:07;2.95;;;2.65;;
44438;SDS011;30145;48.874;10.186;2023-05-29T15:09:34;5.00;;;2.58;;
44438;SDS011;30145;48.874;10.186;2023-05-29T15:12:01;4.82;;;3.00;;
44438;SDS011;30145;48.874;10.186;2023-05-29T15:14:29;3.85;;;3.03;;
44438;SDS011;30145;48.874;10.186;2023-05-29T15:16:56;3.72;;;2.90;;